sensor_id;sensor_type;location;lat;lon;timestamp;pressure;altitude;pressure_sealevel;temperature;humidity
65880;BME280;52661;51.364;6.054;2023-12-20T00:02:09;101230.03;;;7.24;100.00
65880;BME280;52661;51.364;6.054;2023-12-20T00:04:34;101235.34;;;7.20;100.00
65880;BME280;52661;51.364;6.054;2023-12-20T00:07:00;101234.31;;;7.25;100.00
65880;BME280;52661;51.364;6.054;2023-12-20T00:09:25;101225.63;;;7.16;100.00
65880;BME280;52661;51.364;6.054;2023-12-20T00:11:50;101231.28;;;7.11;100.00
65880;BME280;52661;51.364;6.054;2023-12-20T00:14:16;101235.91;;;7.10;100.00
65880;BME280;52661;51.364;6.054;2023-12-20T00:16:41;101241.31;;;7.10;100.00
65880;BME280;52661;51.364;6.054;2023-12-20T00:19:06;101237.47;;;7.11;100.00
65880;BME280;52661;51.364;6.054;2023-12-20T00:21:32;101253.69;;;7.11;100.00
65880;BME280;52661;51.364;6.054;2023-12-20T00:23:58;101269.44;;;7.09;100.00
65880;BME280;52661;51.364;6.054;2023-12-20T00:26:23;101264.81;;;7.10;100.00
65880;BME280;52661;51.364;6.054;2023-12-20T00:28:48;101268.59;;;7.05;100.00
65880;BME280;52661;51.364;6.054;2023-12-20T00:31:14;101271.00;;;7.10;100.00
65880;BME280;52661;51.364;6.054;2023-12-20T00:33:39;101265.81;;;7.02;100.00
65880;BME280;52661;51.364;6.054;2023-12-20T00:36:08;101270.34;;;6.98;100.00
65880;BME280;52661;51.364;6.054;2023-12-20T00:38:34;101266.06;;;6.97;100.00
65880;BME280;52661;51.364;6.054;2023-12-20T00:40:59;101264.31;;;7.04;100.00
65880;BME280;52661;51.364;6.054;2023-12-20T00:43:24;101266.69;;;6.90;100.00
65880;BME280;52661;51.364;6.054;2023-12-20T00:45:49;101271.38;;;6.93;100.00
65880;BME280;52661;51.364;6.054;2023-12-20T00:48:15;101264.31;;;6.88;100.00
65880;BME280;52661;51.364;6.054;2023-12-20T00:50:40;101274.25;;;6.84;100.00
65880;BME280;52661;51.364;6.054;2023-12-20T00:53:05;101263.44;;;6.84;100.00
65880;BME280;52661;51.364;6.054;2023-12-20T00:55:31;101263.28;;;6.77;100.00
65880;BME280;52661;51.364;6.054;2023-12-20T00:57:56;101258.94;;;6.73;100.00
65880;BME280;52661;51.364;6.054;2023-12-20T01:00:21;101262.88;;;6.75;100.00
65880;BME280;52661;51.364;6.054;2023-12-20T01:02:47;101257.47;;;6.75;100.00
65880;BME280;52661;51.364;6.054;2023-12-20T01:05:14;101262.31;;;6.70;100.00
65880;BME280;52661;51.364;6.054;2023-12-20T01:07:40;101267.81;;;6.73;100.00
65880;BME280;52661;51.364;6.054;2023-12-20T01:10:05;101259.22;;;6.68;100.00
65880;BME280;52661;51.364;6.054;2023-12-20T01:12:31;101257.22;;;6.65;100.00
65880;BME280;52661;51.364;6.054;2023-12-20T01:14:56;101262.53;;;6.61;100.00
65880;BME280;52661;51.364;6.054;2023-12-20T01:17:21;101259.13;;;6.64;100.00
65880;BME280;52661;51.364;6.054;2023-12-20T01:19:46;101266.69;;;6.59;100.00
65880;BME280;52661;51.364;6.054;2023-12-20T01:22:12;101261.66;;;6.57;100.00
65880;BME280;52661;51.364;6.054;2023-12-20T01:24:37;101259.28;;;6.56;100.00
65880;BME280;52661;51.364;6.054;2023-12-20T01:27:02;101268.31;;;6.48;100.00
65880;BME280;52661;51.364;6.054;2023-12-20T01:29:28;101265.19;;;6.46;100.00
65880;BME280;52661;51.364;6.054;2023-12-20T01:31:53;101271.19;;;6.39;100.00
65880;BME280;52661;51.364;6.054;2023-12-20T01:34:18;101271.91;;;6.36;100.00
65880;BME280;52661;51.364;6.054;2023-12-20T01:36:44;101269.34;;;6.27;100.00
65880;BME280;52661;51.364;6.054;2023-12-20T01:39:09;101280.56;;;6.29;100.00
65880;BME280;52661;51.364;6.054;2023-12-20T01:41:35;101276.31;;;6.28;100.00
65880;BME280;52661;51.364;6.054;2023-12-20T01:44:00;101265.63;;;6.32;100.00
65880;BME280;52661;51.364;6.054;2023-12-20T01:46:25;101271.25;;;6.27;100.00
65880;BME280;52661;51.364;6.054;2023-12-20T01:48:51;101279.09;;;6.32;100.00
65880;BME280;52661;51.364;6.054;2023-12-20T01:51:17;101274.03;;;6.30;100.00
65880;BME280;52661;51.364;6.054;2023-12-20T01:53:43;101278.03;;;6.21;100.00
65880;BME280;52661;51.364;6.054;2023-12-20T01:56:09;101272.97;;;6.19;100.00
65880;BME280;52661;51.364;6.054;2023-12-20T01:58:39;101285.25;;;6.17;100.00
65880;BME280;52661;51.364;6.054;2023-12-20T02:01:08;101267.31;;;6.09;100.00
65880;BME280;52661;51.364;6.054;2023-12-20T02:03:34;101271.25;;;6.11;100.00
65880;BME280;52661;51.364;6.054;2023-12-20T02:06:02;101274.28;;;6.10;100.00
65880;BME280;52661;51.364;6.054;2023-12-20T02:08:27;101275.38;;;6.09;100.00
65880;BME280;52661;51.364;6.054;2023-12-20T02:10:54;101286.75;;;6.02;100.00
65880;BME280;52661;51.364;6.054;2023-12-20T02:13:19;101281.03;;;6.04;100.00
65880;BME280;52661;51.364;6.054;2023-12-20T02:15:45;101280.25;;;6.03;100.00
65880;BME280;52661;51.364;6.054;2023-12-20T02:18:10;101286.34;;;6.00;100.00
65880;BME280;52661;51.364;6.054;2023-12-20T02:20:39;101286.66;;;5.99;100.00
65880;BME280;52661;51.364;6.054;2023-12-20T02:23:04;101284.56;;;5.92;100.00
65880;BME280;52661;51.364;6.054;2023-12-20T02:25:29;101283.78;;;5.91;100.00
65880;BME280;52661;51.364;6.054;2023-12-20T02:27:55;101288.38;;;5.91;100.00
65880;BME280;52661;51.364;6.054;2023-12-20T02:30:20;101277.03;;;5.85;100.00
65880;BME280;52661;51.364;6.054;2023-12-20T02:32:46;101278.94;;;5.85;100.00
65880;BME280;52661;51.364;6.054;2023-12-20T02:35:12;101270.53;;;5.86;100.00
65880;BME280;52661;51.364;6.054;2023-12-20T02:37:37;101270.09;;;5.84;100.00
65880;BME280;52661;51.364;6.054;2023-12-20T02:40:03;101266.59;;;5.84;100.00
65880;BME280;52661;51.364;6.054;2023-12-20T02:42:29;101276.16;;;5.81;100.00
65880;BME280;52661;51.364;6.054;2023-12-20T02:44:55;101263.25;;;5.87;100.00
65880;BME280;52661;51.364;6.054;2023-12-20T02:47:20;101272.31;;;5.82;100.00
65880;BME280;52661;51.364;6.054;2023-12-20T02:49:45;101276.59;;;5.83;100.00
65880;BME280;52661;51.364;6.054;2023-12-20T02:52:11;101272.47;;;5.86;100.00
65880;BME280;52661;51.364;6.054;2023-12-20T02:54:36;101272.47;;;5.86;100.00
65880;BME280;52661;51.364;6.054;2023-12-20T02:57:01;101282.88;;;5.87;100.00
65880;BME280;52661;51.364;6.054;2023-12-20T02:59:27;101276.94;;;5.82;100.00
65880;BME280;52661;51.364;6.054;2023-12-20T03:01:52;101282.34;;;5.82;100.00
65880;BME280;52661;51.364;6.054;2023-12-20T03:04:17;101275.00;;;5.82;100.00
65880;BME280;52661;51.364;6.054;2023-12-20T03:06:43;101271.66;;;5.85;100.00
65880;BME280;52661;51.364;6.054;2023-12-20T03:09:08;101272.22;;;5.79;100.00
65880;BME280;52661;51.364;6.054;2023-12-20T03:11:33;101258.84;;;5.82;100.00
65880;BME280;52661;51.364;6.054;2023-12-20T03:13:59;101263.91;;;5.84;100.00
65880;BME280;52661;51.364;6.054;2023-12-20T03:16:24;101266.16;;;5.82;100.00
65880;BME280;52661;51.364;6.054;2023-12-20T03:18:49;101274.25;;;5.82;100.00
65880;BME280;52661;51.364;6.054;2023-12-20T03:21:15;101268.88;;;5.82;100.00
65880;BME280;52661;51.364;6.054;2023-12-20T03:23:40;101268.19;;;5.85;100.00
65880;BME280;52661;51.364;6.054;2023-12-20T03:26:09;101266.59;;;5.84;100.00
65880;BME280;52661;51.364;6.054;2023-12-20T03:28:35;101267.94;;;5.90;100.00
65880;BME280;52661;51.364;6.054;2023-12-20T03:31:01;101268.50;;;5.83;100.00
65880;BME280;52661;51.364;6.054;2023-12-20T03:33:27;101269.09;;;5.89;100.00
65880;BME280;52661;51.364;6.054;2023-12-20T03:35:53;101261.22;;;5.84;100.00
65880;BME280;52661;51.364;6.054;2023-12-20T03:38:18;101254.94;;;5.80;100.00
65880;BME280;52661;51.364;6.054;2023-12-20T03:40:44;101255.50;;;5.85;100.00
65880;BME280;52661;51.364;6.054;2023-12-20T03:43:09;101249.22;;;5.81;100.00
65880;BME280;52661;51.364;6.054;2023-12-20T03:45:34;101256.06;;;5.79;100.00
65880;BME280;52661;51.364;6.054;2023-12-20T03:48:00;101267.19;;;5.77;100.00
65880;BME280;52661;51.364;6.054;2023-12-20T03:50:26;101255.63;;;5.77;100.00
65880;BME280;52661;51.364;6.054;2023-12-20T03:52:51;101254.06;;;5.76;100.00
65880;BME280;52661;51.364;6.054;2023-12-20T03:55:17;101254.84;;;5.76;100.00
65880;BME280;52661;51.364;6.054;2023-12-20T03:57:42;101252.59;;;5.78;100.00
65880;BME280;52661;51.364;6.054;2023-12-20T04:00:08;101238.16;;;5.71;100.00
65880;BME280;52661;51.364;6.054;2023-12-20T04:02:40;101236.34;;;5.75;100.00
65880;BME280;52661;51.364;6.054;2023-12-20T04:05:06;101238.56;;;5.73;100.00
65880;BME280;52661;51.364;6.054;2023-12-20T04:07:31;101231.72;;;5.75;100.00
65880;BME280;52661;51.364;6.054;2023-12-20T04:09:57;101241.72;;;5.75;100.00
65880;BME280;52661;51.364;6.054;2023-12-20T04:12:22;101255.00;;;5.68;100.00
65880;BME280;52661;51.364;6.054;2023-12-20T04:14:48;101262.72;;;5.69;100.00
65880;BME280;52661;51.364;6.054;2023-12-20T04:17:14;101268.56;;;5.71;100.00
65880;BME280;52661;51.364;6.054;2023-12-20T04:19:41;101255.84;;;5.72;100.00
65880;BME280;52661;51.364;6.054;2023-12-20T04:22:06;101257.34;;;5.69;100.00
65880;BME280;52661;51.364;6.054;2023-12-20T04:24:32;101254.41;;;5.74;100.00
65880;BME280;52661;51.364;6.054;2023-12-20T04:26:57;101253.75;;;5.65;100.00
65880;BME280;52661;51.364;6.054;2023-12-20T04:29:22;101250.03;;;5.70;100.00
65880;BME280;52661;51.364;6.054;2023-12-20T04:31:48;101242.41;;;5.72;100.00
65880;BME280;52661;51.364;6.054;2023-12-20T04:34:15;101252.03;;;5.73;100.00
65880;BME280;52661;51.364;6.054;2023-12-20T04:36:40;101252.16;;;5.76;100.00
65880;BME280;52661;51.364;6.054;2023-12-20T04:39:05;101259.78;;;5.74;100.00
65880;BME280;52661;51.364;6.054;2023-12-20T04:41:31;101255.97;;;5.75;100.00
65880;BME280;52661;51.364;6.054;2023-12-20T04:43:57;101262.59;;;5.78;100.00
65880;BME280;52661;51.364;6.054;2023-12-20T04:46:22;101258.53;;;5.84;100.00
65880;BME280;52661;51.364;6.054;2023-12-20T04:48:47;101270.88;;;5.85;100.00
65880;BME280;52661;51.364;6.054;2023-12-20T04:51:13;101265.03;;;5.83;100.00
65880;BME280;52661;51.364;6.054;2023-12-20T04:53:38;101255.81;;;5.84;100.00
65880;BME280;52661;51.364;6.054;2023-12-20T04:56:03;101256.63;;;5.84;100.00
65880;BME280;52661;51.364;6.054;2023-12-20T04:58:29;101250.09;;;5.85;100.00
65880;BME280;52661;51.364;6.054;2023-12-20T05:00:54;101254.84;;;5.88;100.00
65880;BME280;52661;51.364;6.054;2023-12-20T05:03:20;101251.03;;;5.89;100.00
65880;BME280;52661;51.364;6.054;2023-12-20T05:05:45;101257.94;;;5.90;100.00
65880;BME280;52661;51.364;6.054;2023-12-20T05:08:10;101252.22;;;5.92;100.00
65880;BME280;52661;51.364;6.054;2023-12-20T05:10:36;101261.09;;;5.92;100.00
65880;BME280;52661;51.364;6.054;2023-12-20T05:13:01;101255.44;;;5.98;100.00
65880;BME280;52661;51.364;6.054;2023-12-20T05:15:27;101252.06;;;6.01;100.00
65880;BME280;52661;51.364;6.054;2023-12-20T05:17:52;101251.31;;;6.00;100.00
65880;BME280;52661;51.364;6.054;2023-12-20T05:20:17;101268.78;;;6.06;100.00
65880;BME280;52661;51.364;6.054;2023-12-20T05:22:43;101257.41;;;6.13;100.00
65880;BME280;52661;51.364;6.054;2023-12-20T05:25:10;101244.97;;;6.08;100.00
65880;BME280;52661;51.364;6.054;2023-12-20T05:27:36;101238.22;;;6.14;100.00
65880;BME280;52661;51.364;6.054;2023-12-20T05:30:01;101235.06;;;6.12;100.00
65880;BME280;52661;51.364;6.054;2023-12-20T05:32:27;101235.41;;;6.11;100.00
65880;BME280;52661;51.364;6.054;2023-12-20T05:34:52;101231.56;;;6.12;100.00
65880;BME280;52661;51.364;6.054;2023-12-20T05:37:17;101226.97;;;6.12;100.00
65880;BME280;52661;51.364;6.054;2023-12-20T05:39:43;101238.91;;;6.11;100.00
65880;BME280;52661;51.364;6.054;2023-12-20T05:42:08;101235.06;;;6.12;100.00
65880;BME280;52661;51.364;6.054;2023-12-20T05:44:33;101235.84;;;6.13;100.00
65880;BME280;52661;51.364;6.054;2023-12-20T05:46:59;101244.72;;;6.13;100.00
65880;BME280;52661;51.364;6.054;2023-12-20T05:49:24;101245.50;;;6.14;100.00
65880;BME280;52661;51.364;6.054;2023-12-20T05:51:49;101239.00;;;6.15;100.00
65880;BME280;52661;51.364;6.054;2023-12-20T05:54:16;101241.94;;;6.10;100.00
65880;BME280;52661;51.364;6.054;2023-12-20T05:56:41;101243.59;;;6.14;100.00
65880;BME280;52661;51.364;6.054;2023-12-20T05:59:07;101246.28;;;6.14;100.00
65880;BME280;52661;51.364;6.054;2023-12-20T06:01:32;101241.31;;;6.16;100.00
65880;BME280;52661;51.364;6.054;2023-12-20T06:03:57;101241.00;;;6.18;100.00
65880;BME280;52661;51.364;6.054;2023-12-20T06:06:23;101241.78;;;6.18;100.00
65880;BME280;52661;51.364;6.054;2023-12-20T06:08:48;101254.81;;;6.16;100.00
65880;BME280;52661;51.364;6.054;2023-12-20T06:11:14;101247.59;;;6.20;100.00
65880;BME280;52661;51.364;6.054;2023-12-20T06:13:40;101244.47;;;6.18;100.00
65880;BME280;52661;51.364;6.054;2023-12-20T06:16:05;101243.78;;;6.21;100.00
65880;BME280;52661;51.364;6.054;2023-12-20T06:18:32;101254.09;;;6.19;100.00
65880;BME280;52661;51.364;6.054;2023-12-20T06:20:57;101248.38;;;6.21;100.00
65880;BME280;52661;51.364;6.054;2023-12-20T06:23:23;101274.22;;;6.22;100.00
65880;BME280;52661;51.364;6.054;2023-12-20T06:25:48;101263.16;;;6.27;100.00
65880;BME280;52661;51.364;6.054;2023-12-20T06:28:13;101258.22;;;6.29;100.00
65880;BME280;52661;51.364;6.054;2023-12-20T06:30:40;101272.47;;;6.29;100.00
65880;BME280;52661;51.364;6.054;2023-12-20T06:33:05;101266.66;;;6.27;100.00
65880;BME280;52661;51.364;6.054;2023-12-20T06:35:32;101265.63;;;6.32;100.00
65880;BME280;52661;51.364;6.054;2023-12-20T06:37:57;101261.81;;;6.33;100.00
65880;BME280;52661;51.364;6.054;2023-12-20T06:40:22;101272.03;;;6.27;100.00
65880;BME280;52661;51.364;6.054;2023-12-20T06:42:48;101267.19;;;6.33;100.00
65880;BME280;52661;51.364;6.054;2023-12-20T06:45:13;101270.56;;;6.30;100.00
65880;BME280;52661;51.364;6.054;2023-12-20T06:47:38;101263.72;;;6.32;100.00
65880;BME280;52661;51.364;6.054;2023-12-20T06:50:05;101269.97;;;6.36;100.00
65880;BME280;52661;51.364;6.054;2023-12-20T06:52:30;101258.84;;;6.38;100.00
65880;BME280;52661;51.364;6.054;2023-12-20T06:54:55;101256.94;;;6.38;100.00
65880;BME280;52661;51.364;6.054;2023-12-20T06:57:21;101261.53;;;6.38;100.00
65880;BME280;52661;51.364;6.054;2023-12-20T06:59:46;101263.72;;;6.32;100.00
65880;BME280;52661;51.364;6.054;2023-12-20T07:02:11;101258.75;;;6.34;100.00
65880;BME280;52661;51.364;6.054;2023-12-20T07:04:40;101260.56;;;6.30;100.00
65880;BME280;52661;51.364;6.054;2023-12-20T07:07:06;101258.13;;;6.25;100.00
65880;BME280;52661;51.364;6.054;2023-12-20T07:09:32;101249.25;;;6.25;100.00
65880;BME280;52661;51.364;6.054;2023-12-20T07:11:57;101250.38;;;6.24;100.00
65880;BME280;52661;51.364;6.054;2023-12-20T07:14:23;101248.03;;;6.22;100.00
65880;BME280;52661;51.364;6.054;2023-12-20T07:16:49;101255.69;;;6.20;100.00
65880;BME280;52661;51.364;6.054;2023-12-20T07:19:14;101265.50;;;6.13;100.00
65880;BME280;52661;51.364;6.054;2023-12-20T07:21:39;101260.47;;;6.11;100.00
65880;BME280;52661;51.364;6.054;2023-12-20T07:24:05;101273.06;;;6.07;100.00
65880;BME280;52661;51.364;6.054;2023-12-20T07:26:30;101280.34;;;6.07;100.00
65880;BME280;52661;51.364;6.054;2023-12-20T07:28:55;101269.22;;;6.08;100.00
65880;BME280;52661;51.364;6.054;2023-12-20T07:31:21;101280.00;;;6.08;100.00
65880;BME280;52661;51.364;6.054;2023-12-20T07:33:46;101273.28;;;6.02;100.00
65880;BME280;52661;51.364;6.054;2023-12-20T07:36:12;101271.28;;;5.99;100.00
65880;BME280;52661;51.364;6.054;2023-12-20T07:38:38;101266.59;;;5.96;100.00
65880;BME280;52661;51.364;6.054;2023-12-20T07:41:03;101278.81;;;5.93;100.00
65880;BME280;52661;51.364;6.054;2023-12-20T07:43:29;101264.13;;;5.91;100.00
65880;BME280;52661;51.364;6.054;2023-12-20T07:45:54;101269.97;;;5.93;100.00
65880;BME280;52661;51.364;6.054;2023-12-20T07:48:20;101257.53;;;5.88;100.00
65880;BME280;52661;51.364;6.054;2023-12-20T07:50:45;101249.88;;;5.90;100.00
65880;BME280;52661;51.364;6.054;2023-12-20T07:53:10;101263.09;;;5.96;100.00
65880;BME280;52661;51.364;6.054;2023-12-20T07:55:36;101248.31;;;5.89;100.00
65880;BME280;52661;51.364;6.054;2023-12-20T07:58:01;101260.66;;;5.90;100.00
65880;BME280;52661;51.364;6.054;2023-12-20T08:00:27;101253.34;;;5.91;100.00
65880;BME280;52661;51.364;6.054;2023-12-20T08:02:52;101263.34;;;5.90;100.00
65880;BME280;52661;51.364;6.054;2023-12-20T08:05:18;101254.56;;;5.93;100.00
65880;BME280;52661;51.364;6.054;2023-12-20T08:07:43;101256.59;;;5.97;100.00
65880;BME280;52661;51.364;6.054;2023-12-20T08:10:09;101255.13;;;5.99;100.00
65880;BME280;52661;51.364;6.054;2023-12-20T08:12:34;101247.81;;;6.00;100.00
65880;BME280;52661;51.364;6.054;2023-12-20T08:14:59;101247.47;;;6.01;100.00
65880;BME280;52661;51.364;6.054;2023-12-20T08:17:25;101257.44;;;6.01;100.00
65880;BME280;52661;51.364;6.054;2023-12-20T08:19:51;101260.16;;;6.01;100.00
65880;BME280;52661;51.364;6.054;2023-12-20T08:22:16;101259.81;;;6.02;100.00
65880;BME280;52661;51.364;6.054;2023-12-20T08:24:42;101260.00;;;6.09;100.00
65880;BME280;52661;51.364;6.054;2023-12-20T08:27:07;101282.69;;;6.08;100.00
65880;BME280;52661;51.364;6.054;2023-12-20T08:29:32;101276.63;;;6.11;100.00
65880;BME280;52661;51.364;6.054;2023-12-20T08:31:59;101273.56;;;6.13;100.00
65880;BME280;52661;51.364;6.054;2023-12-20T08:34:24;101288.16;;;6.12;100.00
65880;BME280;52661;51.364;6.054;2023-12-20T08:36:50;101276.38;;;6.16;100.00
65880;BME280;52661;51.364;6.054;2023-12-20T08:39:16;101286.72;;;6.14;100.00
65880;BME280;52661;51.364;6.054;2023-12-20T08:41:41;101282.31;;;6.22;100.00
65880;BME280;52661;51.364;6.054;2023-12-20T08:44:07;101275.66;;;6.19;100.00
65880;BME280;52661;51.364;6.054;2023-12-20T08:46:32;101284.63;;;6.23;100.00
65880;BME280;52661;51.364;6.054;2023-12-20T08:48:57;101281.34;;;6.30;100.00
65880;BME280;52661;51.364;6.054;2023-12-20T08:51:23;101287.53;;;6.30;100.00
65880;BME280;52661;51.364;6.054;2023-12-20T08:53:51;101270.75;;;6.37;100.00
65880;BME280;52661;51.364;6.054;2023-12-20T08:56:16;101269.53;;;6.34;100.00
65880;BME280;52661;51.364;6.054;2023-12-20T08:58:43;101248.75;;;6.35;100.00
65880;BME280;52661;51.364;6.054;2023-12-20T09:01:08;101252.16;;;6.32;100.00
65880;BME280;52661;51.364;6.054;2023-12-20T09:03:34;101252.56;;;6.34;100.00
65880;BME280;52661;51.364;6.054;2023-12-20T09:05:59;101247.63;;;6.36;100.00
65880;BME280;52661;51.364;6.054;2023-12-20T09:08:25;101250.75;;;6.38;100.00
65880;BME280;52661;51.364;6.054;2023-12-20T09:10:50;101249.63;;;6.39;100.00
65880;BME280;52661;51.364;6.054;2023-12-20T09:13:15;101252.13;;;6.48;100.00
65880;BME280;52661;51.364;6.054;2023-12-20T09:15:41;101247.91;;;6.47;100.00
65880;BME280;52661;51.364;6.054;2023-12-20T09:18:06;101244.06;;;6.48;100.00
65880;BME280;52661;51.364;6.054;2023-12-20T09:20:32;101244.06;;;6.48;100.00
65880;BME280;52661;51.364;6.054;2023-12-20T09:22:58;101243.97;;;6.44;100.00
65880;BME280;52661;51.364;6.054;2023-12-20T09:25:23;101246.41;;;6.49;100.00
65880;BME280;52661;51.364;6.054;2023-12-20T09:27:48;101248.31;;;6.49;100.00
65880;BME280;52661;51.364;6.054;2023-12-20T09:30:14;101249.53;;;6.51;100.00
65880;BME280;52661;51.364;6.054;2023-12-20T09:32:39;101264.16;;;6.50;100.00
65880;BME280;52661;51.364;6.054;2023-12-20T09:35:05;101277.75;;;6.54;100.00
65880;BME280;52661;51.364;6.054;2023-12-20T09:37:31;101256.50;;;6.52;100.00
65880;BME280;52661;51.364;6.054;2023-12-20T09:39:56;101278.44;;;6.51;100.00
65880;BME280;52661;51.364;6.054;2023-12-20T09:45:01;101263.81;;;6.52;100.00
65880;BME280;52661;51.364;6.054;2023-12-20T09:47:28;101266.41;;;6.48;100.00
65880;BME280;52661;51.364;6.054;2023-12-20T09:49:54;101254.91;;;6.51;100.00
65880;BME280;52661;51.364;6.054;2023-12-20T09:52:20;101264.34;;;6.57;100.00
65880;BME280;52661;51.364;6.054;2023-12-20T09:54:49;101252.34;;;6.55;100.00
65880;BME280;52661;51.364;6.054;2023-12-20T09:57:17;101258.16;;;6.57;100.00
65880;BME280;52661;51.364;6.054;2023-12-20T09:59:43;101255.72;;;6.52;100.00
65880;BME280;52661;51.364;6.054;2023-12-20T10:02:12;101256.34;;;6.61;100.00
65880;BME280;52661;51.364;6.054;2023-12-20T10:04:44;101257.53;;;6.63;100.00
65880;BME280;52661;51.364;6.054;2023-12-20T10:07:11;101256.66;;;6.59;100.00
65880;BME280;52661;51.364;6.054;2023-12-20T10:09:36;101249.47;;;6.63;100.00
65880;BME280;52661;51.364;6.054;2023-12-20T10:12:03;101252.94;;;6.64;100.00
65880;BME280;52661;51.364;6.054;2023-12-20T10:14:30;101253.81;;;6.68;100.00
65880;BME280;52661;51.364;6.054;2023-12-20T10:17:02;101251.53;;;6.70;100.00
65880;BME280;52661;51.364;6.054;2023-12-20T10:19:27;101245.44;;;6.73;100.00
65880;BME280;52661;51.364;6.054;2023-12-20T10:21:52;101253.91;;;6.71;100.00
65880;BME280;52661;51.364;6.054;2023-12-20T10:24:18;101240.03;;;6.73;100.00
65880;BME280;52661;51.364;6.054;2023-12-20T10:26:43;101233.97;;;6.76;100.00
65880;BME280;52661;51.364;6.054;2023-12-20T10:29:09;101233.53;;;6.74;100.00
65880;BME280;52661;51.364;6.054;2023-12-20T10:31:35;101237.47;;;6.76;100.00
65880;BME280;52661;51.364;6.054;2023-12-20T10:34:02;101238.31;;;6.80;100.00
65880;BME280;52661;51.364;6.054;2023-12-20T10:36:30;101236.66;;;6.76;100.00
65880;BME280;52661;51.364;6.054;2023-12-20T10:38:56;101223.25;;;6.79;100.00
65880;BME280;52661;51.364;6.054;2023-12-20T10:41:31;101232.16;;;6.80;100.00
65880;BME280;52661;51.364;6.054;2023-12-20T10:43:59;101236.31;;;6.77;100.00
65880;BME280;52661;51.364;6.054;2023-12-20T10:46:26;101232.56;;;6.82;100.00
65880;BME280;52661;51.364;6.054;2023-12-20T10:48:53;101239.16;;;6.84;100.00
65880;BME280;52661;51.364;6.054;2023-12-20T10:51:20;101254.22;;;6.85;100.00
65880;BME280;52661;51.364;6.054;2023-12-20T10:53:47;101232.31;;;6.87;100.00
65880;BME280;52661;51.364;6.054;2023-12-20T10:56:15;101223.84;;;6.88;100.00
65880;BME280;52661;51.364;6.054;2023-12-20T10:58:42;101226.22;;;6.90;100.00
65880;BME280;52661;51.364;6.054;2023-12-20T11:01:09;101223.59;;;6.93;100.00
65880;BME280;52661;51.364;6.054;2023-12-20T11:03:36;101230.53;;;6.94;100.00
65880;BME280;52661;51.364;6.054;2023-12-20T11:09:22;101224.88;;;7.00;100.00
65880;BME280;52661;51.364;6.054;2023-12-20T11:14:46;101199.88;;;7.03;100.00
65880;BME280;52661;51.364;6.054;2023-12-20T11:17:12;101198.41;;;7.05;100.00
65880;BME280;52661;51.364;6.054;2023-12-20T11:22:28;101194.56;;;7.06;100.00
65880;BME280;52661;51.364;6.054;2023-12-20T11:24:58;101201.94;;;7.09;100.00
65880;BME280;52661;51.364;6.054;2023-12-20T11:27:24;101198.50;;;7.09;100.00
65880;BME280;52661;51.364;6.054;2023-12-20T11:29:53;101199.69;;;7.11;100.00
65880;BME280;52661;51.364;6.054;2023-12-20T11:34:58;101192.78;;;7.14;100.00
65880;BME280;52661;51.364;6.054;2023-12-20T11:37:36;101193.50;;;7.11;100.00
65880;BME280;52661;51.364;6.054;2023-12-20T11:40:04;101190.47;;;7.12;100.00
65880;BME280;52661;51.364;6.054;2023-12-20T11:42:38;101194.78;;;7.17;100.00
65880;BME280;52661;51.364;6.054;2023-12-20T11:45:03;101189.03;;;7.18;100.00
65880;BME280;52661;51.364;6.054;2023-12-20T11:47:30;101178.50;;;7.13;100.00
65880;BME280;52661;51.364;6.054;2023-12-20T11:49:56;101167.38;;;7.15;100.00
65880;BME280;52661;51.364;6.054;2023-12-20T11:52:22;101167.09;;;7.20;100.00
65880;BME280;52661;51.364;6.054;2023-12-20T11:54:47;101162.47;;;7.20;100.00
65880;BME280;52661;51.364;6.054;2023-12-20T11:57:13;101169.38;;;7.18;100.00
65880;BME280;52661;51.364;6.054;2023-12-20T11:59:38;101167.88;;;7.20;100.00
65880;BME280;52661;51.364;6.054;2023-12-20T12:02:04;101183.19;;;7.16;100.00
65880;BME280;52661;51.364;6.054;2023-12-20T12:04:29;101165.88;;;7.17;100.00
65880;BME280;52661;51.364;6.054;2023-12-20T12:06:54;101168.25;;;7.19;100.00
65880;BME280;52661;51.364;6.054;2023-12-20T12:09:20;101167.88;;;7.20;100.00
65880;BME280;52661;51.364;6.054;2023-12-20T12:11:45;101168.72;;;7.24;100.00
65880;BME280;52661;51.364;6.054;2023-12-20T12:14:11;101165.59;;;7.22;100.00
65880;BME280;52661;51.364;6.054;2023-12-20T12:16:37;101161.59;;;7.16;100.00
65880;BME280;52661;51.364;6.054;2023-12-20T12:19:02;101160.00;;;7.12;100.00
65880;BME280;52661;51.364;6.054;2023-12-20T12:21:27;101172.78;;;7.15;100.00
65880;BME280;52661;51.364;6.054;2023-12-20T12:23:53;101160.41;;;7.14;100.00
65880;BME280;52661;51.364;6.054;2023-12-20T12:26:18;101147.88;;;7.06;100.00
65880;BME280;52661;51.364;6.054;2023-12-20T12:28:44;101146.06;;;7.10;100.00
65880;BME280;52661;51.364;6.054;2023-12-20T12:31:14;101146.91;;;7.14;100.00
65880;BME280;52661;51.364;6.054;2023-12-20T12:33:42;101143.09;;;7.15;100.00
65880;BME280;52661;51.364;6.054;2023-12-20T12:36:09;101138.09;;;7.17;100.00
65880;BME280;52661;51.364;6.054;2023-12-20T12:38:34;101150.41;;;7.14;100.00
65880;BME280;52661;51.364;6.054;2023-12-20T12:41:00;101145.41;;;7.16;100.00
65880;BME280;52661;51.364;6.054;2023-12-20T12:43:26;101131.00;;;7.09;100.00
65880;BME280;52661;51.364;6.054;2023-12-20T12:45:51;101139.09;;;7.09;100.00
65880;BME280;52661;51.364;6.054;2023-12-20T12:48:17;101129.00;;;7.06;100.00
65880;BME280;52661;51.364;6.054;2023-12-20T12:50:42;101124.75;;;7.05;100.00
65880;BME280;52661;51.364;6.054;2023-12-20T12:53:08;101120.47;;;7.04;100.00
65880;BME280;52661;51.364;6.054;2023-12-20T12:55:34;101111.25;;;7.05;100.00
65880;BME280;52661;51.364;6.054;2023-12-20T12:58:00;101124.38;;;7.06;100.00